createdAt,value
2022-12-08T00:01:50.288Z,39.13
2022-12-08T00:04:18.730Z,36.15
2022-12-08T00:07:08.730Z,33.78
2022-12-08T00:09:42.423Z,34.00
2022-12-08T00:12:12.701Z,40.53
2022-12-08T00:14:43.407Z,34.53
2022-12-08T00:17:13.422Z,46.20
2022-12-08T00:19:42.652Z,37.33
2022-12-08T00:22:13.604Z,37.55
2022-12-08T00:24:44.940Z,41.80
2022-12-08T00:27:16.461Z,37.15
2022-12-08T00:29:45.915Z,33.58
2022-12-08T00:32:14.578Z,29.95
2022-12-08T00:34:42.953Z,28.05
2022-12-08T00:37:13.019Z,39.35
2022-12-08T00:39:41.449Z,29.92
2022-12-08T00:42:15.955Z,38.03
2022-12-08T00:44:45.950Z,35.00
2022-12-08T00:47:15.075Z,23.27
2022-12-08T00:49:43.571Z,25.00
2022-12-08T00:52:13.360Z,22.23
2022-12-08T00:54:41.712Z,28.63
2022-12-08T00:57:11.643Z,25.92
2022-12-08T00:59:40.032Z,33.88
2022-12-08T01:02:18.641Z,19.70
2022-12-08T01:04:47.106Z,26.25
2022-12-08T01:07:20.177Z,22.73
2022-12-08T01:09:49.571Z,19.63
2022-12-08T01:12:17.941Z,15.68
2022-12-08T01:14:46.343Z,22.67
2022-12-08T01:17:16.098Z,14.30
2022-12-08T01:19:44.469Z,18.08
2022-12-08T01:22:12.699Z,16.63
2022-12-08T01:24:45.630Z,19.58
2022-12-08T01:27:16.468Z,14.07
2022-12-08T01:29:44.931Z,19.40
2022-12-08T01:32:13.245Z,12.35
2022-12-08T01:34:41.890Z,13.18
2022-12-08T01:37:12.638Z,17.92
2022-12-08T01:39:44.459Z,8.45
2022-12-08T01:42:23.326Z,16.73
2022-12-08T01:45:01.007Z,13.45
2022-12-08T01:47:37.516Z,18.20
2022-12-08T01:50:09.564Z,18.15
2022-12-08T01:52:46.420Z,18.63
2022-12-08T01:55:28.585Z,13.32
2022-12-08T01:58:02.120Z,20.80
2022-12-08T02:00:34.783Z,10.25
2022-12-08T02:03:08.708Z,13.57
2022-12-08T02:05:43.980Z,17.77
2022-12-08T02:08:14.764Z,12.23
2022-12-08T02:10:59.866Z,11.63
2022-12-08T02:13:28.934Z,10.98
2022-12-08T02:16:14.724Z,12.88
2022-12-08T02:19:30.155Z,18.30
2022-12-08T02:22:17.779Z,11.20
2022-12-08T02:24:52.603Z,18.30
2022-12-08T02:27:46.381Z,12.15
2022-12-08T02:30:33.472Z,17.65
2022-12-08T02:33:46.346Z,14.75
2022-12-08T02:36:24.438Z,15.77
2022-12-08T02:39:09.878Z,15.40
2022-12-08T02:41:50.970Z,16.63
2022-12-08T02:44:38.141Z,12.15
2022-12-08T02:47:09.739Z,11.48
2022-12-08T02:49:50.386Z,10.40
2022-12-08T02:52:41.508Z,23.13
2022-12-08T02:55:20.783Z,20.25
2022-12-08T02:58:11.191Z,11.50
2022-12-08T03:00:57.976Z,14.43
2022-12-08T03:03:48.931Z,19.52
2022-12-08T03:09:39.895Z,14.25
2022-12-08T03:12:42.082Z,12.80
2022-12-08T03:15:20.509Z,19.20
2022-12-08T03:18:24.661Z,15.07
2022-12-08T03:21:14.974Z,16.23
2022-12-08T03:24:18.812Z,17.55
2022-12-08T03:27:11.739Z,19.45
2022-12-08T03:30:42.398Z,16.80
2022-12-08T03:37:52.030Z,19.25
2022-12-08T03:47:34.303Z,21.75
2022-12-08T03:50:05.538Z,30.15
2022-12-08T03:52:50.946Z,19.10
2022-12-08T03:59:36.647Z,24.30
2022-12-08T04:02:16.724Z,20.35
2022-12-08T04:05:25.675Z,20.58
2022-12-08T04:12:17.816Z,28.23
2022-12-08T04:15:31.251Z,25.08
2022-12-08T04:18:01.624Z,24.10
2022-12-08T04:24:23.485Z,27.77
2022-12-08T04:27:09.778Z,24.45
2022-12-08T04:29:40.757Z,31.20
2022-12-08T04:32:12.437Z,28.55
2022-12-08T04:34:57.303Z,31.27
2022-12-08T04:37:34.408Z,28.00
2022-12-08T04:44:29.369Z,39.25
2022-12-08T04:51:33.419Z,24.67
2022-12-08T04:54:14.726Z,24.90
2022-12-08T04:56:50.529Z,34.60
2022-12-08T04:59:31.704Z,27.65
2022-12-08T05:02:01.965Z,34.17
2022-12-08T05:05:00.409Z,33.42
2022-12-08T05:08:15.877Z,41.25
2022-12-08T05:14:18.547Z,31.20
2022-12-08T05:16:51.523Z,29.10
2022-12-08T05:19:50.489Z,43.05
2022-12-08T05:25:19.748Z,40.05
2022-12-08T05:28:40.127Z,36.30
2022-12-08T05:31:37.422Z,41.28
2022-12-08T05:42:09.372Z,30.23
2022-12-08T05:48:48.468Z,30.05
2022-12-08T06:05:39.800Z,33.13
2022-12-08T06:09:22.777Z,37.67
2022-12-08T06:12:13.451Z,37.08
2022-12-08T06:14:44.249Z,38.50
2022-12-08T06:17:32.406Z,28.05
2022-12-08T06:20:48.029Z,32.72
2022-12-08T06:26:25.993Z,39.67
2022-12-08T06:29:12.029Z,34.58
2022-12-08T06:31:41.330Z,43.22
2022-12-08T06:34:44.105Z,40.30
2022-12-08T06:40:57.586Z,37.33
2022-12-08T06:46:56.191Z,43.35
2022-12-08T06:49:48.316Z,46.65
2022-12-08T06:52:40.891Z,32.88
2022-12-08T06:55:59.083Z,37.97
2022-12-08T06:59:07.537Z,38.53
2022-12-08T07:05:22.579Z,39.67
2022-12-08T07:12:09.065Z,31.85
2022-12-08T07:14:57.492Z,35.05
2022-12-08T07:17:26.073Z,39.50
2022-12-08T07:21:12.649Z,33.90
2022-12-08T07:24:13.098Z,28.27
2022-12-08T07:26:45.741Z,36.83
2022-12-08T07:29:15.002Z,37.80
2022-12-08T07:32:27.946Z,37.53
2022-12-08T07:35:02.511Z,34.20
2022-12-08T07:37:35.332Z,34.67
2022-12-08T07:40:49.768Z,41.97
2022-12-08T07:43:56.633Z,33.63
2022-12-08T07:46:27.486Z,30.98
2022-12-08T07:49:15.334Z,41.92
2022-12-08T07:55:18.665Z,31.02
2022-12-08T07:58:14.114Z,41.03
2022-12-08T08:00:44.134Z,45.08
2022-12-08T08:06:42.583Z,43.78
2022-12-08T08:09:38.296Z,44.83
2022-12-08T08:12:33.393Z,45.35
2022-12-08T08:15:31.462Z,42.13
2022-12-08T08:18:00.445Z,33.20
2022-12-08T08:21:06.733Z,39.63
2022-12-08T08:24:17.721Z,33.38
2022-12-08T08:31:44.328Z,33.65
2022-12-08T08:34:40.283Z,37.53
2022-12-08T08:37:18.623Z,30.15
2022-12-08T08:39:49.369Z,31.70
2022-12-08T08:42:43.717Z,37.88
2022-12-08T08:45:23.639Z,49.15
2022-12-08T08:47:53.972Z,36.33
2022-12-08T08:50:24.364Z,35.88
2022-12-08T08:53:31.245Z,41.10
2022-12-08T08:56:02.954Z,33.00
2022-12-08T08:58:51.919Z,35.42
2022-12-08T09:01:32.898Z,43.58
2022-12-08T09:04:06.957Z,39.33
2022-12-08T09:06:52.110Z,41.10
2022-12-08T09:09:24.721Z,32.20
2022-12-08T09:11:59.647Z,34.17
2022-12-08T09:14:28.267Z,40.70
2022-12-08T09:17:28.893Z,31.50
2022-12-08T09:20:03.886Z,35.10
2022-12-08T09:22:49.898Z,30.05
2022-12-08T09:25:18.823Z,25.48
2022-12-08T09:27:47.493Z,37.20
2022-12-08T09:30:16.321Z,31.67
2022-12-08T09:32:45.519Z,37.88
2022-12-08T09:35:14.059Z,41.72
2022-12-08T09:37:42.921Z,33.35
2022-12-08T09:40:21.109Z,35.70
2022-12-08T09:42:54.277Z,30.90
2022-12-08T09:45:28.224Z,36.90
2022-12-08T09:48:02.244Z,35.83
2022-12-08T09:50:35.361Z,36.10
2022-12-08T09:53:13.511Z,37.05
2022-12-08T09:55:55.576Z,38.95
2022-12-08T09:58:38.149Z,38.38
2022-12-08T10:01:14.547Z,29.60
2022-12-08T10:03:43.815Z,40.22
2022-12-08T10:06:21.825Z,38.25
2022-12-08T10:09:12.438Z,35.67
2022-12-08T10:11:51.520Z,27.55
2022-12-08T10:14:29.029Z,36.65
2022-12-08T10:17:04.797Z,33.45
2022-12-08T10:19:51.102Z,41.72
2022-12-08T10:22:23.554Z,29.30
2022-12-08T10:25:03.120Z,30.15
2022-12-08T10:27:36.269Z,33.30
2022-12-08T10:30:11.227Z,38.90
2022-12-08T10:32:40.888Z,34.78
2022-12-08T10:35:12.993Z,29.33
2022-12-08T10:37:47.682Z,33.42
2022-12-08T10:40:19.273Z,35.53
2022-12-08T10:42:55.036Z,33.90
2022-12-08T10:45:27.110Z,37.83
2022-12-08T10:48:05.817Z,38.88
2022-12-08T10:50:36.787Z,52.28
2022-12-08T10:53:15.175Z,43.75
2022-12-08T10:55:46.106Z,33.88
2022-12-08T10:58:35.754Z,40.45
2022-12-08T11:01:31.005Z,41.53
2022-12-08T11:04:03.220Z,43.25
2022-12-08T11:06:35.671Z,39.17
2022-12-08T11:09:22.929Z,32.35
2022-12-08T11:11:53.570Z,32.88
2022-12-08T11:14:28.281Z,39.08
2022-12-08T11:16:59.321Z,40.72
2022-12-08T11:19:33.495Z,50.35
2022-12-08T11:22:02.654Z,40.42
2022-12-08T11:24:36.021Z,40.25
2022-12-08T11:27:12.622Z,36.10
2022-12-08T11:30:03.168Z,37.05
2022-12-08T11:32:51.153Z,36.25
2022-12-08T11:35:30.598Z,40.72
2022-12-08T11:38:22.664Z,42.47
2022-12-08T11:40:56.891Z,33.38
2022-12-08T11:43:32.559Z,40.80
2022-12-08T11:46:04.869Z,40.95
2022-12-08T11:48:37.954Z,42.50
2022-12-08T11:51:13.658Z,47.33
2022-12-08T11:53:55.107Z,43.92
2022-12-08T11:56:29.403Z,39.63
2022-12-08T11:59:13.919Z,45.55
2022-12-08T12:02:00.965Z,48.90
2022-12-08T12:04:40.433Z,40.10
2022-12-08T12:07:40.768Z,55.13
2022-12-08T12:10:37.335Z,46.38
2022-12-08T12:13:27.730Z,47.90
2022-12-08T12:16:38.160Z,45.63
2022-12-08T12:19:24.437Z,44.65
2022-12-08T12:21:56.280Z,52.55
2022-12-08T12:24:35.411Z,48.67
2022-12-08T12:27:19.866Z,61.40
2022-12-08T12:29:56.119Z,56.90
2022-12-08T12:32:40.203Z,64.93
2022-12-08T12:35:33.868Z,64.18
2022-12-08T12:38:51.964Z,53.72
2022-12-08T12:41:26.822Z,52.20
2022-12-08T12:45:00.247Z,60.53
2022-12-08T12:47:54.120Z,68.50
2022-12-08T12:50:48.801Z,48.83
2022-12-08T12:54:04.082Z,52.00
2022-12-08T12:56:51.640Z,54.67
2022-12-08T12:59:42.698Z,58.88
2022-12-08T13:02:33.167Z,59.53
2022-12-08T13:05:16.366Z,56.60
2022-12-08T13:11:31.882Z,64.93
2022-12-08T13:14:03.978Z,56.90
2022-12-08T13:16:35.789Z,58.80
2022-12-08T13:19:09.560Z,60.42
2022-12-08T13:22:22.238Z,66.57
2022-12-08T13:25:57.069Z,65.20
2022-12-08T13:28:30.412Z,63.05
2022-12-08T13:31:01.099Z,62.97
2022-12-08T13:33:43.176Z,55.45
2022-12-08T13:36:20.050Z,58.63
2022-12-08T13:38:51.906Z,53.45
2022-12-08T13:41:23.599Z,62.33
2022-12-08T13:44:56.641Z,59.20
2022-12-08T13:56:59.749Z,70.90
2022-12-08T13:58:34.759Z,61.63
2022-12-08T14:01:09.152Z,62.75
2022-12-08T14:04:04.655Z,61.13
2022-12-08T14:06:43.919Z,63.47
2022-12-08T14:09:16.077Z,63.78
2022-12-08T14:11:47.956Z,66.00
2022-12-08T14:14:32.603Z,71.32
2022-12-08T14:17:25.195Z,73.82
2022-12-08T14:19:58.997Z,66.60
2022-12-08T14:22:34.552Z,81.35
2022-12-08T14:25:03.588Z,73.47
2022-12-08T14:27:35.276Z,69.88
2022-12-08T14:30:08.582Z,78.85
2022-12-08T14:32:44.368Z,68.18
2022-12-08T14:35:23.601Z,75.60
2022-12-08T14:37:55.402Z,70.00
2022-12-08T14:40:26.402Z,64.82
2022-12-08T14:43:19.474Z,66.15
2022-12-08T14:45:53.585Z,62.72
2022-12-08T14:48:29.326Z,65.53
2022-12-08T14:51:22.891Z,67.93
2022-12-08T14:53:58.972Z,59.20
2022-12-08T14:56:44.152Z,61.97
2022-12-08T14:59:20.739Z,66.00
2022-12-08T15:01:52.784Z,62.33
2022-12-08T15:04:29.568Z,62.40
2022-12-08T15:07:03.879Z,60.72
2022-12-08T15:09:36.816Z,56.78
2022-12-08T15:12:07.575Z,60.05
2022-12-08T15:14:38.484Z,62.80
2022-12-08T15:17:32.728Z,59.55
2022-12-08T15:20:04.481Z,59.50
2022-12-08T15:22:33.554Z,63.80
2022-12-08T15:25:02.513Z,76.10
2022-12-08T15:27:34.966Z,66.93
2022-12-08T15:30:21.524Z,63.25
2022-12-08T15:32:56.586Z,60.83
2022-12-08T15:35:42.281Z,66.18
2022-12-08T15:38:21.764Z,70.22
2022-12-08T15:40:50.662Z,70.97
2022-12-08T15:43:19.257Z,65.10
2022-12-08T15:45:58.473Z,62.38
2022-12-08T15:48:29.878Z,55.15
2022-12-08T15:51:01.734Z,64.68
2022-12-08T15:53:31.161Z,71.80
2022-12-08T15:58:59.131Z,68.43
2022-12-08T16:01:28.208Z,67.88
2022-12-08T16:04:27.968Z,65.63
2022-12-08T16:09:42.453Z,69.82
2022-12-08T16:19:02.099Z,70.53
2022-12-08T16:22:04.676Z,68.38
2022-12-08T16:24:26.489Z,69.30
2022-12-08T16:27:59.505Z,75.72
2022-12-08T16:29:58.427Z,74.93
2022-12-08T16:32:37.659Z,76.45
2022-12-08T16:35:07.644Z,75.88
2022-12-08T16:37:36.249Z,73.03
2022-12-08T16:40:31.784Z,71.72
2022-12-08T16:43:04.081Z,79.03
2022-12-08T16:45:40.002Z,69.38
2022-12-08T16:48:17.318Z,74.25
2022-12-08T16:50:47.003Z,69.00
2022-12-08T16:53:18.183Z,72.55
2022-12-08T16:55:50.635Z,70.47
2022-12-08T16:58:24.077Z,65.70
2022-12-08T17:00:58.664Z,77.38
2022-12-08T17:03:27.284Z,71.05
2022-12-08T17:05:55.682Z,68.68
2022-12-08T17:08:29.091Z,79.38
2022-12-08T17:11:10.500Z,61.30
2022-12-08T17:13:42.895Z,77.00
2022-12-08T17:16:17.788Z,78.05
2022-12-08T17:18:50.302Z,74.45
2022-12-08T17:21:19.827Z,70.10
2022-12-08T17:23:48.898Z,68.40
2022-12-08T17:26:36.722Z,66.78
2022-12-08T17:29:05.379Z,67.07
2022-12-08T17:31:37.349Z,68.85
2022-12-08T17:34:10.483Z,66.80
2022-12-08T17:36:39.249Z,72.50
2022-12-08T17:39:18.460Z,60.35
2022-12-08T17:41:49.296Z,66.68
2022-12-08T17:44:21.289Z,67.15
2022-12-08T17:46:52.941Z,68.93
2022-12-08T17:49:24.877Z,74.75
2022-12-08T17:51:59.450Z,64.18
2022-12-08T17:54:29.297Z,68.22
2022-12-08T17:57:00.073Z,64.70
2022-12-08T17:59:29.418Z,60.65
2022-12-08T18:01:59.404Z,64.38
2022-12-08T18:04:33.311Z,57.78
2022-12-08T18:07:03.576Z,64.03
2022-12-08T18:09:32.852Z,61.65
2022-12-08T18:12:02.731Z,58.47
2022-12-08T18:14:33.560Z,53.38
2022-12-08T18:17:02.182Z,61.70
2022-12-08T18:19:30.808Z,61.15
2022-12-08T18:21:59.489Z,57.35
2022-12-08T18:24:32.300Z,64.75
2022-12-08T18:27:04.002Z,65.65
2022-12-08T18:29:37.498Z,62.53
2022-12-08T18:32:05.977Z,69.25
2022-12-08T18:34:35.171Z,61.90
2022-12-08T18:37:03.645Z,61.28
2022-12-08T18:39:34.158Z,59.28
2022-12-08T18:42:22.857Z,69.05
2022-12-08T18:44:52.883Z,71.80
2022-12-08T18:47:30.554Z,66.28
2022-12-08T18:49:59.878Z,73.75
2022-12-08T18:52:39.486Z,67.63
2022-12-08T18:56:43.254Z,68.47
2022-12-08T19:19:57.198Z,65.15
2022-12-08T19:22:25.762Z,56.33
2022-12-08T19:24:54.297Z,70.38
2022-12-08T19:27:25.563Z,65.10
2022-12-08T19:29:54.108Z,63.15
2022-12-08T19:32:22.789Z,63.22
2022-12-08T19:34:51.195Z,61.75
2022-12-08T19:37:21.328Z,68.07
2022-12-08T19:40:07.629Z,59.00
2022-12-08T19:42:54.503Z,56.20
2022-12-08T19:45:23.809Z,56.33
2022-12-08T19:47:52.381Z,59.90
2022-12-08T19:50:39.859Z,61.35
2022-12-08T19:53:14.199Z,52.17
2022-12-08T19:55:43.724Z,51.63
2022-12-08T19:58:16.023Z,57.50
2022-12-08T20:00:56.662Z,55.45
2022-12-08T20:03:28.426Z,65.65
2022-12-08T20:05:57.153Z,68.47
2022-12-08T20:08:28.274Z,67.78
2022-12-08T20:11:01.804Z,56.60
2022-12-08T20:13:42.115Z,55.85
2022-12-08T20:16:12.081Z,53.72
2022-12-08T20:18:42.130Z,55.72
2022-12-08T20:21:12.223Z,50.88
2022-12-08T20:23:49.961Z,55.25
2022-12-08T20:26:23.560Z,53.72
2022-12-08T20:28:52.463Z,53.58
2022-12-08T20:31:21.967Z,59.15
2022-12-08T20:33:50.863Z,61.03
2022-12-08T20:36:21.332Z,59.00
2022-12-08T20:38:53.051Z,53.40
2022-12-08T20:41:23.453Z,64.88
2022-12-08T20:43:52.577Z,47.22
2022-12-08T20:46:22.219Z,57.45
2022-12-08T20:48:50.816Z,73.32
2022-12-08T20:51:20.850Z,55.30
2022-12-08T20:53:50.812Z,53.47
2022-12-08T20:56:21.391Z,53.65
2022-12-08T20:58:50.360Z,50.60
2022-12-08T21:01:23.161Z,54.60
2022-12-08T21:03:53.254Z,61.13
2022-12-08T21:06:28.442Z,61.38
2022-12-08T21:08:58.690Z,57.35
2022-12-08T21:11:27.536Z,62.65
2022-12-08T21:13:58.010Z,58.30
2022-12-08T21:16:29.794Z,49.50
2022-12-08T21:18:58.595Z,52.03
2022-12-08T21:21:27.146Z,51.53
2022-12-08T21:23:57.653Z,58.30
2022-12-08T21:26:45.027Z,62.88
2022-12-08T21:29:16.976Z,59.20
2022-12-08T21:31:45.545Z,61.38
2022-12-08T21:34:14.067Z,58.55
2022-12-08T21:36:42.741Z,57.97
2022-12-08T21:39:14.040Z,58.15
2022-12-08T21:42:05.338Z,56.33
2022-12-08T21:44:36.962Z,55.50
2022-12-08T21:47:06.582Z,57.05
2022-12-08T21:49:38.859Z,56.72
2022-12-08T21:52:07.962Z,51.70
2022-12-08T21:54:37.568Z,56.33
2022-12-08T21:57:09.647Z,60.10
2022-12-08T21:59:54.075Z,65.93
2022-12-08T22:02:33.253Z,58.92
2022-12-08T22:05:14.331Z,60.50
2022-12-08T22:07:46.632Z,55.38
2022-12-08T22:10:35.262Z,62.97
2022-12-08T22:13:10.556Z,59.75
2022-12-08T22:16:07.752Z,63.67
2022-12-08T22:18:45.159Z,65.47
2022-12-08T22:21:33.968Z,60.70
2022-12-08T22:24:33.968Z,64.65
2022-12-08T22:27:04.758Z,65.45
2022-12-08T22:29:36.417Z,59.22
2022-12-08T22:32:18.892Z,59.05
2022-12-08T22:34:53.027Z,61.65
2022-12-08T22:37:22.294Z,56.30
2022-12-08T22:39:52.986Z,72.13
2022-12-08T22:42:51.750Z,63.30
2022-12-08T22:45:21.990Z,53.83
2022-12-08T22:47:53.877Z,69.57
2022-12-08T22:50:24.964Z,60.65
2022-12-08T22:52:58.804Z,66.13
2022-12-08T22:55:27.668Z,58.28
2022-12-08T22:58:15.048Z,61.58
2022-12-08T23:00:43.689Z,62.38
2022-12-08T23:03:16.072Z,57.92
2022-12-08T23:05:45.938Z,59.72
2022-12-08T23:08:18.239Z,58.72
2022-12-08T23:10:50.446Z,61.83
2022-12-08T23:13:19.722Z,68.45
2022-12-08T23:16:04.177Z,57.08
2022-12-08T23:18:58.227Z,58.45
2022-12-08T23:21:31.771Z,56.70
2022-12-08T23:24:08.715Z,67.78
2022-12-08T23:26:46.282Z,61.78
2022-12-08T23:29:15.009Z,71.35
2022-12-08T23:31:45.975Z,65.90
2022-12-08T23:34:16.385Z,63.95
2022-12-08T23:36:48.240Z,65.90
2022-12-08T23:39:36.066Z,70.43
2022-12-08T23:42:05.346Z,64.57
2022-12-08T23:44:34.447Z,60.47
2022-12-08T23:47:04.505Z,68.68
2022-12-08T23:49:37.587Z,67.65
2022-12-08T23:52:14.674Z,69.18
2022-12-08T23:54:44.929Z,66.25
